createdAt,value
2023-09-07T00:00:39.011Z,101444.44
2023-09-07T00:03:43.609Z,101445.34
2023-09-07T00:06:17.338Z,101435.66
2023-09-07T00:09:02.995Z,101436.69
2023-09-07T00:11:37.972Z,101447.97
2023-09-07T00:14:14.041Z,101433.59
2023-09-07T00:17:01.038Z,101443.59
2023-09-07T00:19:50.468Z,101439.66
2023-09-07T00:22:53.763Z,101457.81
2023-09-07T00:25:27.124Z,101445.22
2023-09-07T00:28:11.361Z,101455.22
2023-09-07T00:30:42.589Z,101446.66
2023-09-07T00:33:16.922Z,101449.53
2023-09-07T00:35:51.275Z,101454.00
2023-09-07T00:38:51.707Z,101457.06
2023-09-07T00:41:24.832Z,101448.50
2023-09-07T00:43:52.620Z,101454.06
2023-09-07T00:46:32.110Z,101434.03
2023-09-07T00:49:07.241Z,101430.81
2023-09-07T00:52:09.215Z,101442.91
2023-09-07T00:54:42.586Z,101440.47
2023-09-07T00:57:38.362Z,101435.50
2023-09-07T01:00:26.329Z,101440.94
2023-09-07T01:03:00.647Z,101425.41
2023-09-07T01:05:56.209Z,101438.69
2023-09-07T01:08:38.726Z,101437.06
2023-09-07T01:14:36.338Z,101442.66
2023-09-07T01:17:42.095Z,101434.00
2023-09-07T01:20:19.216Z,101449.19
2023-09-07T01:22:57.468Z,101452.88
2023-09-07T01:25:38.706Z,101454.81
2023-09-07T01:28:12.280Z,101448.78
2023-09-07T01:30:45.073Z,101442.84
2023-09-07T01:33:17.581Z,101445.50
2023-09-07T01:35:48.157Z,101446.56
2023-09-07T01:38:22.527Z,101449.31
2023-09-07T01:41:22.461Z,101429.19
2023-09-07T01:43:58.230Z,101426.50
2023-09-07T01:46:34.791Z,101443.47
2023-09-07T01:49:11.651Z,101448.09
2023-09-07T01:52:24.521Z,101447.34
2023-09-07T01:55:04.322Z,101444.78
2023-09-07T01:57:56.356Z,101437.06
2023-09-07T02:00:35.435Z,101433.75
2023-09-07T02:03:09.880Z,101444.47
2023-09-07T02:05:48.543Z,101448.06
2023-09-07T02:08:21.256Z,101449.03
2023-09-07T02:11:14.158Z,101445.66
2023-09-07T02:13:49.826Z,101453.75
2023-09-07T02:16:26.337Z,101447.91
2023-09-07T02:21:58.300Z,101459.41
2023-09-07T02:24:38.757Z,101461.94
2023-09-07T02:27:59.274Z,101463.69
2023-09-07T02:30:37.080Z,101460.88
2023-09-07T02:33:27.728Z,101457.16
2023-09-07T02:36:00.017Z,101437.53
2023-09-07T02:38:38.646Z,101458.03
2023-09-07T02:44:23.026Z,101456.59
2023-09-07T02:46:53.952Z,101459.41
2023-09-07T02:49:28.035Z,101446.28
2023-09-07T02:51:58.112Z,101453.31
2023-09-07T02:54:35.866Z,101453.31
2023-09-07T02:57:10.012Z,101442.69
2023-09-07T02:59:55.746Z,101442.84
2023-09-07T03:02:33.018Z,101456.00
2023-09-07T03:05:08.502Z,101449.63
2023-09-07T03:08:05.788Z,101453.09
2023-09-07T03:10:46.356Z,101463.69
2023-09-07T03:13:31.365Z,101458.34
2023-09-07T03:16:19.288Z,101461.94
2023-09-07T03:19:07.794Z,101467.44
2023-09-07T03:21:50.164Z,101465.72
2023-09-07T03:24:36.456Z,101467.47
2023-09-07T03:27:18.678Z,101470.22
2023-09-07T03:29:54.559Z,101463.81
2023-09-07T03:32:32.985Z,101469.16
2023-09-07T03:35:22.869Z,101474.44
2023-09-07T03:37:59.991Z,101477.06
2023-09-07T03:40:44.445Z,101465.66
2023-09-07T03:43:39.379Z,101481.34
2023-09-07T03:46:11.977Z,101475.94
2023-09-07T03:49:17.770Z,101477.59
2023-09-07T03:52:15.308Z,101470.59
2023-09-07T03:54:55.727Z,101484.75
2023-09-07T04:00:56.812Z,101485.97
2023-09-07T04:10:30.766Z,101477.19
2023-09-07T04:14:00.397Z,101475.00
2023-09-07T04:16:59.092Z,101464.19
2023-09-07T04:20:18.607Z,101476.06
2023-09-07T04:27:07.129Z,101476.38
2023-09-07T04:29:55.414Z,101482.72
2023-09-07T04:32:46.596Z,101488.69
2023-09-07T04:35:52.972Z,101491.25
2023-09-07T04:39:08.154Z,101483.13
2023-09-07T04:42:06.673Z,101482.06
2023-09-07T04:45:01.237Z,101476.91
2023-09-07T04:48:39.618Z,101470.44
2023-09-07T04:52:15.382Z,101482.88
2023-09-07T04:55:03.663Z,101477.16
2023-09-07T04:58:32.484Z,101485.28
2023-09-07T05:02:23.888Z,101492.66
2023-09-07T05:05:45.858Z,101486.50
2023-09-07T05:08:22.281Z,101485.03
2023-09-07T05:11:18.305Z,101481.06
2023-09-07T05:14:05.367Z,101490.78
2023-09-07T05:18:10.369Z,101492.09
2023-09-07T05:25:32.248Z,101493.53
2023-09-07T05:32:54.067Z,101496.69
2023-09-07T05:59:39.878Z,101520.31
2023-09-07T06:02:38.546Z,101516.47
2023-09-07T06:05:23.123Z,101511.63
2023-09-07T06:12:27.670Z,101523.38
2023-09-07T06:15:59.349Z,101528.13
2023-09-07T06:19:15.727Z,101530.38
2023-09-07T06:22:09.873Z,101525.53
2023-09-07T06:26:17.924Z,101523.09
2023-09-07T06:29:21.689Z,101530.22
2023-09-07T06:32:34.473Z,101522.50
2023-09-07T06:36:30.319Z,101528.81
2023-09-07T06:39:56.311Z,101539.88
2023-09-07T06:43:09.241Z,101514.31
2023-09-07T06:46:04.368Z,101524.22
2023-09-07T06:49:05.997Z,101527.09
2023-09-07T06:52:04.164Z,101538.09
2023-09-07T07:06:48.457Z,101538.09
2023-09-07T07:09:48.183Z,101540.03
2023-09-07T07:12:47.141Z,101541.03
2023-09-07T07:19:40.946Z,101535.16
2023-09-07T07:31:01.819Z,101538.94
2023-09-07T07:38:31.244Z,101536.94
2023-09-07T07:50:55.153Z,101520.84
2023-09-07T08:06:46.905Z,101520.06
2023-09-07T08:10:01.907Z,101521.66
2023-09-07T08:17:49.958Z,101519.19
2023-09-07T08:25:55.399Z,101512.72
2023-09-07T08:33:41.272Z,101504.06
2023-09-07T08:37:24.456Z,101505.16
2023-09-07T08:47:16.775Z,101476.88
2023-09-07T08:50:06.422Z,101472.28
2023-09-07T08:52:56.318Z,101479.66
2023-09-07T08:56:11.503Z,101481.41
2023-09-07T09:07:06.281Z,101473.34
2023-09-07T09:18:35.894Z,101458.78
2023-09-07T09:22:31.950Z,101465.50
2023-09-07T09:25:34.181Z,101450.81
2023-09-07T10:02:25.991Z,101425.38
2023-09-07T10:05:37.080Z,101429.19
2023-09-07T10:19:30.116Z,101421.72
2023-09-07T10:48:20.879Z,101405.84
2023-09-07T11:07:09.591Z,101368.78
2023-09-07T11:10:10.567Z,101373.88
2023-09-07T11:34:40.744Z,101352.94
2023-09-07T11:38:50.834Z,101355.28
2023-09-07T11:46:14.866Z,101343.94
2023-09-07T11:52:59.258Z,101349.94
2023-09-07T11:55:48.893Z,101340.34
2023-09-07T12:21:10.901Z,101317.66
2023-09-07T13:14:33.683Z,101339.78
2023-09-07T13:18:25.592Z,101331.44
2023-09-07T13:25:31.078Z,101325.63
2023-09-07T13:34:01.746Z,101330.63
2023-09-07T13:37:14.097Z,101328.69
2023-09-07T13:40:13.755Z,101331.25
2023-09-07T13:46:36.185Z,101314.25
2023-09-07T13:50:11.495Z,101308.25
2023-09-07T13:53:43.420Z,101312.53
2023-09-07T13:56:51.484Z,101299.06
2023-09-07T14:03:52.032Z,101299.88
2023-09-07T14:11:33.958Z,101284.09
2023-09-07T14:19:32.116Z,101287.16
2023-09-07T14:26:31.478Z,101267.59
2023-09-07T14:29:58.786Z,101277.63
2023-09-07T14:33:44.924Z,101283.22
2023-09-07T14:37:06.379Z,101284.97
2023-09-07T14:40:01.460Z,101288.94
2023-09-07T14:47:29.234Z,101288.13
2023-09-07T14:50:27.453Z,101288.13
2023-09-07T14:53:36.860Z,101287.09
2023-09-07T14:56:42.643Z,101285.97
2023-09-07T14:59:33.474Z,101283.06
2023-09-07T15:03:29.542Z,101288.25
2023-09-07T15:06:04.684Z,101283.97
2023-09-07T15:09:09.172Z,101274.91
2023-09-07T15:15:17.861Z,101289.47
2023-09-07T15:19:31.037Z,101286.03
2023-09-07T15:27:20.089Z,101295.53
2023-09-07T15:31:03.380Z,101297.44
2023-09-07T15:51:06.028Z,101313.53
2023-09-07T15:54:18.750Z,101305.81
2023-09-07T15:57:09.825Z,101308.81
2023-09-07T15:59:54.997Z,101306.66
2023-09-07T16:03:26.360Z,101302.06
2023-09-07T16:06:31.846Z,101321.13
2023-09-07T16:09:21.600Z,101310.81
2023-09-07T16:39:17.013Z,101320.00
2023-09-07T16:42:02.946Z,101330.34
2023-09-07T16:45:13.279Z,101330.72
2023-09-07T16:52:22.357Z,101334.69
2023-09-07T16:56:12.329Z,101328.91
2023-09-07T17:16:45.651Z,101361.28
2023-09-07T17:20:36.310Z,101362.94
2023-09-07T17:36:22.181Z,101378.63
2023-09-07T17:52:04.887Z,101403.31
2023-09-07T18:00:05.986Z,101407.13
2023-09-07T18:25:33.525Z,101419.34
2023-09-07T18:28:57.999Z,101429.72
2023-09-07T18:34:51.837Z,101413.13
2023-09-07T18:38:43.764Z,101434.56
2023-09-07T18:49:49.536Z,101430.56
2023-09-07T18:52:43.806Z,101423.28
2023-09-07T19:00:42.939Z,101442.84
2023-09-07T19:04:56.562Z,101439.00
2023-09-07T19:34:35.693Z,101448.63
2023-09-07T19:37:58.691Z,101451.78
2023-09-07T19:41:31.349Z,101458.28
2023-09-07T19:44:41.902Z,101457.84
2023-09-07T19:47:40.177Z,101453.91
2023-09-07T19:54:59.625Z,101468.81
2023-09-07T19:58:43.187Z,101462.34
2023-09-07T20:02:07.013Z,101468.94
2023-09-07T20:05:20.711Z,101465.94
2023-09-07T20:13:14.005Z,101466.44
2023-09-07T20:16:35.158Z,101463.31
2023-09-07T20:20:31.523Z,101473.25
2023-09-07T20:23:52.052Z,101468.50
2023-09-07T20:26:55.694Z,101478.66
2023-09-07T20:29:37.763Z,101464.81
2023-09-07T20:32:32.911Z,101471.19
2023-09-07T20:43:09.324Z,101468.03
2023-09-07T20:46:52.892Z,101471.72
2023-09-07T20:52:40.959Z,101483.69
2023-09-07T20:58:16.328Z,101481.72
2023-09-07T21:04:40.364Z,101499.09
2023-09-07T21:07:24.209Z,101491.63
2023-09-07T21:10:05.616Z,101506.97
2023-09-07T21:12:48.376Z,101503.88
2023-09-07T21:15:31.440Z,101499.84
2023-09-07T21:18:26.433Z,101509.28
2023-09-07T21:21:02.821Z,101509.69
2023-09-07T21:24:31.948Z,101511.09
2023-09-07T21:28:25.754Z,101512.66
2023-09-07T21:30:58.984Z,101506.41
2023-09-07T21:33:50.403Z,101522.59
2023-09-07T21:37:29.601Z,101514.03
2023-09-07T21:40:11.921Z,101511.13
2023-09-07T21:43:05.093Z,101533.88
2023-09-07T21:46:00.344Z,101523.63
2023-09-07T21:48:50.984Z,101528.22
2023-09-07T21:54:27.875Z,101534.41
2023-09-07T21:57:02.523Z,101525.22
2023-09-07T22:00:27.753Z,101545.06
2023-09-07T22:03:14.114Z,101540.16
2023-09-07T22:06:09.155Z,101547.63
2023-09-07T22:12:11.717Z,101551.34
2023-09-07T22:14:46.166Z,101560.66
2023-09-07T22:17:49.497Z,101563.72
2023-09-07T22:20:42.304Z,101559.56
2023-09-07T22:23:42.511Z,101558.97
2023-09-07T22:26:16.881Z,101551.34
2023-09-07T22:28:46.214Z,101548.22
2023-09-07T22:31:22.558Z,101547.66
2023-09-07T22:33:53.423Z,101552.28
2023-09-07T22:36:40.984Z,101560.53
2023-09-07T22:39:15.525Z,101562.63
2023-09-07T22:42:13.279Z,101571.81
2023-09-07T22:44:47.863Z,101561.41
2023-09-07T22:47:25.228Z,101560.91
2023-09-07T22:49:58.968Z,101567.50
2023-09-07T22:52:32.594Z,101571.81
2023-09-07T22:55:47.229Z,101558.22
2023-09-07T22:58:37.052Z,101570.25
2023-09-07T23:01:35.327Z,101572.50
2023-09-07T23:04:26.398Z,101584.31
2023-09-07T23:07:00.638Z,101570.59
2023-09-07T23:09:56.256Z,101586.91
2023-09-07T23:12:35.636Z,101577.34
2023-09-07T23:15:13.123Z,101560.94
2023-09-07T23:20:38.124Z,101570.00
2023-09-07T23:23:28.053Z,101586.34
2023-09-07T23:26:02.523Z,101575.16
2023-09-07T23:28:41.100Z,101584.78
2023-09-07T23:31:33.402Z,101583.22
2023-09-07T23:34:27.733Z,101584.50
2023-09-07T23:37:01.080Z,101577.03
2023-09-07T23:39:37.815Z,101588.84
2023-09-07T23:42:11.808Z,101591.94
2023-09-07T23:44:53.412Z,101584.44
2023-09-07T23:47:32.237Z,101597.88
2023-09-07T23:50:05.451Z,101584.19
2023-09-07T23:52:38.408Z,101592.25
2023-09-07T23:55:14.621Z,101582.47
2023-09-07T23:57:51.663Z,101583.25
